createdAt,value
2023-01-01T00:00:27.865Z,7.50
2023-01-01T00:01:31.259Z,7.67
2023-01-01T00:02:36.933Z,7.33
2023-01-01T00:03:40.768Z,7.20
2023-01-01T00:04:53.262Z,7.10
2023-01-01T00:05:55.490Z,6.68
2023-01-01T00:07:00.616Z,9.17
2023-01-01T00:08:13.072Z,8.60
2023-01-01T00:09:35.425Z,7.25
2023-01-01T00:10:37.512Z,7.27
2023-01-01T00:11:40.149Z,8.00
2023-01-01T00:12:42.694Z,6.63
2023-01-01T00:13:45.324Z,7.53
2023-01-01T00:14:47.290Z,8.40
2023-01-01T00:15:50.483Z,7.47
2023-01-01T00:16:55.543Z,7.55
2023-01-01T00:17:58.586Z,8.47
2023-01-01T00:19:00.196Z,8.93
2023-01-01T00:20:02.811Z,10.03
2023-01-01T00:21:06.534Z,10.90
2023-01-01T00:22:44.227Z,11.40
2023-01-01T00:23:35.483Z,11.80
2023-01-01T00:24:37.053Z,13.37
2023-01-01T00:25:40.667Z,15.40
2023-01-01T00:26:42.454Z,14.20
2023-01-01T00:27:45.394Z,13.30
2023-01-01T00:28:47.956Z,13.73
2023-01-01T00:29:50.509Z,14.70
2023-01-01T00:30:52.281Z,15.40
2023-01-01T00:31:54.966Z,15.77
2023-01-01T00:32:57.597Z,14.57
2023-01-01T00:34:01.057Z,15.70
2023-01-01T00:35:04.324Z,17.60
2023-01-01T00:36:08.836Z,17.57
2023-01-01T00:37:14.803Z,17.83
2023-01-01T00:38:17.484Z,17.73
2023-01-01T00:39:19.078Z,19.60
2023-01-01T00:40:21.897Z,16.97
2023-01-01T00:41:25.018Z,16.60
2023-01-01T00:42:27.535Z,16.70
2023-01-01T00:43:39.354Z,15.10
2023-01-01T00:44:51.848Z,14.60
2023-01-01T00:45:53.692Z,13.73
2023-01-01T00:46:58.617Z,12.77
2023-01-01T00:48:01.233Z,12.50
2023-01-01T00:49:13.554Z,11.33
2023-01-01T00:50:24.731Z,10.73
2023-01-01T00:51:31.622Z,11.20
2023-01-01T00:52:38.714Z,10.17
2023-01-01T00:53:40.468Z,9.57
2023-01-01T00:54:44.518Z,9.90
2023-01-01T00:55:49.419Z,9.27
2023-01-01T00:56:53.502Z,8.77
2023-01-01T00:57:56.180Z,9.47
2023-01-01T00:59:00.629Z,7.10
2023-01-01T01:00:06.223Z,6.10
2023-01-01T01:01:13.141Z,7.32
2023-01-01T01:02:15.071Z,8.02
2023-01-01T01:03:28.840Z,6.90
2023-01-01T01:04:30.569Z,6.25
2023-01-01T01:05:33.881Z,6.60
2023-01-01T01:06:35.785Z,7.87
2023-01-01T01:07:40.148Z,4.80
2023-01-01T01:08:43.879Z,6.67
2023-01-01T01:09:46.757Z,5.23
2023-01-01T01:10:48.465Z,6.05
2023-01-01T01:11:51.210Z,6.57
2023-01-01T01:13:13.899Z,6.50
2023-01-01T01:14:16.656Z,5.90
2023-01-01T01:15:19.427Z,5.32
2023-01-01T01:16:24.549Z,5.17
2023-01-01T01:17:27.248Z,4.00
2023-01-01T01:18:29.841Z,4.50
2023-01-01T01:19:33.793Z,4.88
2023-01-01T01:20:51.568Z,3.40
2023-01-01T01:21:54.207Z,4.67
2023-01-01T01:22:57.114Z,3.80
2023-01-01T01:24:01.497Z,3.90
2023-01-01T01:25:03.323Z,3.20
2023-01-01T01:26:11.906Z,3.10
2023-01-01T01:27:13.551Z,3.60
2023-01-01T01:28:16.593Z,3.25
2023-01-01T01:29:18.236Z,3.00
2023-01-01T01:30:20.765Z,3.37
2023-01-01T01:31:24.280Z,3.03
2023-01-01T01:32:26.773Z,4.20
2023-01-01T01:33:28.383Z,3.60
2023-01-01T01:34:31.087Z,3.17
2023-01-01T01:35:33.079Z,2.58
2023-01-01T01:36:43.793Z,2.67
2023-01-01T01:37:45.818Z,3.07
2023-01-01T01:38:59.673Z,2.87
2023-01-01T01:40:01.799Z,3.03
2023-01-01T01:41:04.941Z,2.50
2023-01-01T01:42:06.806Z,3.33
2023-01-01T01:43:13.649Z,2.30
2023-01-01T01:44:54.971Z,3.00
2023-01-01T01:46:11.632Z,2.90
2023-01-01T01:47:15.759Z,2.55
2023-01-01T01:48:18.313Z,3.40
2023-01-01T01:49:27.530Z,2.50
2023-01-01T01:50:33.211Z,2.80
2023-01-01T01:51:39.360Z,2.40
2023-01-01T01:52:47.432Z,3.17
2023-01-01T01:53:55.382Z,2.40
2023-01-01T01:55:01.495Z,2.53
2023-01-01T01:56:07.901Z,3.50
2023-01-01T01:57:12.492Z,2.17
2023-01-01T01:58:17.758Z,2.70
2023-01-01T01:59:26.149Z,2.30
2023-01-01T02:00:27.896Z,2.57
2023-01-01T02:01:30.906Z,2.55
2023-01-01T02:02:36.501Z,2.03
2023-01-01T02:03:43.482Z,3.23
2023-01-01T02:04:55.503Z,2.27
2023-01-01T02:05:59.437Z,2.35
2023-01-01T02:07:01.386Z,2.97
2023-01-01T02:08:05.715Z,2.60
2023-01-01T02:09:08.963Z,2.30
2023-01-01T02:10:12.912Z,2.78
2023-01-01T02:11:20.177Z,2.60
2023-01-01T02:12:25.040Z,2.13
2023-01-01T02:13:26.901Z,2.20
2023-01-01T02:14:29.440Z,2.85
2023-01-01T02:15:36.776Z,2.40
2023-01-01T02:16:44.559Z,2.20
2023-01-01T02:17:58.257Z,2.47
2023-01-01T02:19:08.715Z,2.03
2023-01-01T02:20:26.515Z,2.50
2023-01-01T02:21:33.583Z,2.03
2023-01-01T02:23:02.221Z,2.23
2023-01-01T02:24:23.265Z,3.28
2023-01-01T02:25:34.958Z,1.80
2023-01-01T02:26:49.397Z,3.30
2023-01-01T02:28:12.128Z,2.60
2023-01-01T02:29:26.100Z,2.07
2023-01-01T02:30:30.634Z,1.87
2023-01-01T02:31:38.064Z,2.35
2023-01-01T02:32:46.242Z,1.60
2023-01-01T02:33:50.677Z,2.45
2023-01-01T02:34:58.165Z,2.40
2023-01-01T02:36:02.436Z,1.90
2023-01-01T02:37:09.560Z,2.43
2023-01-01T02:38:18.252Z,3.72
2023-01-01T02:39:23.888Z,1.97
2023-01-01T02:40:27.555Z,2.20
2023-01-01T02:41:34.784Z,2.00
2023-01-01T02:42:36.456Z,2.10
2023-01-01T02:43:39.511Z,2.80
2023-01-01T02:44:48.588Z,2.92
2023-01-01T02:45:51.288Z,1.52
2023-01-01T02:46:52.927Z,2.05
2023-01-01T02:47:55.460Z,2.20
2023-01-01T02:48:57.978Z,2.03
2023-01-01T02:50:09.496Z,2.40
2023-01-01T02:51:19.816Z,2.00
2023-01-01T02:52:48.233Z,2.20
2023-01-01T02:54:01.476Z,2.50
2023-01-01T02:55:12.014Z,2.15
2023-01-01T02:56:20.792Z,1.95
2023-01-01T02:57:32.232Z,2.40
2023-01-01T02:58:58.319Z,2.07
2023-01-01T03:00:24.117Z,2.50
2023-01-01T03:01:32.686Z,2.20
2023-01-01T03:02:46.634Z,2.00
2023-01-01T03:04:03.188Z,2.50
2023-01-01T03:05:12.100Z,1.90
2023-01-01T03:06:24.190Z,2.20
2023-01-01T03:07:33.161Z,2.13
2023-01-01T03:08:49.872Z,2.67
2023-01-01T03:09:59.097Z,2.30
2023-01-01T03:11:08.488Z,4.22
2023-01-01T03:12:22.354Z,2.13
2023-01-01T03:13:32.193Z,2.03
2023-01-01T03:14:50.802Z,2.70
2023-01-01T03:16:00.565Z,2.10
2023-01-01T03:17:10.595Z,2.30
2023-01-01T03:18:21.090Z,2.80
2023-01-01T03:19:26.250Z,2.45
2023-01-01T03:20:31.896Z,2.20
2023-01-01T03:21:34.678Z,2.80
2023-01-01T03:23:49.855Z,3.27
2023-01-01T03:24:58.035Z,1.87
2023-01-01T03:26:06.733Z,2.55
2023-01-01T03:27:14.721Z,2.00
2023-01-01T03:28:20.356Z,2.80
2023-01-01T03:29:25.365Z,2.40
2023-01-01T03:30:28.686Z,2.00
2023-01-01T03:31:34.687Z,2.20
2023-01-01T03:32:59.925Z,2.30
2023-01-01T03:34:07.090Z,2.58
2023-01-01T03:35:09.918Z,2.53
2023-01-01T03:36:15.528Z,2.30
2023-01-01T03:37:25.865Z,2.55
2023-01-01T03:38:32.531Z,2.05
2023-01-01T03:39:38.109Z,2.17
2023-01-01T03:40:41.626Z,2.20
2023-01-01T03:41:47.247Z,2.20
2023-01-01T03:42:52.515Z,2.50
2023-01-01T03:44:00.098Z,2.40
2023-01-01T03:45:06.091Z,1.85
2023-01-01T03:46:10.004Z,3.13
2023-01-01T03:47:15.064Z,2.28
2023-01-01T03:48:16.983Z,2.50
2023-01-01T03:49:21.334Z,2.30
2023-01-01T03:50:31.299Z,1.83
2023-01-01T03:51:51.859Z,2.00
2023-01-01T03:53:01.650Z,1.97
2023-01-01T03:54:10.170Z,1.60
2023-01-01T03:55:18.014Z,2.13
2023-01-01T03:56:27.725Z,2.33
2023-01-01T03:57:37.377Z,2.40
2023-01-01T03:58:43.553Z,2.30
2023-01-01T03:59:53.277Z,2.30
2023-01-01T04:01:02.928Z,2.10
2023-01-01T04:02:08.723Z,2.13
2023-01-01T04:03:19.505Z,2.40
2023-01-01T04:04:21.155Z,2.30
2023-01-01T04:05:25.552Z,2.53
2023-01-01T04:06:27.885Z,2.63
2023-01-01T04:07:32.083Z,2.13
2023-01-01T04:08:34.993Z,1.90
2023-01-01T04:09:41.523Z,2.28
2023-01-01T04:10:47.132Z,1.87
2023-01-01T04:12:04.179Z,2.20
2023-01-01T04:13:06.962Z,2.50
2023-01-01T04:14:09.847Z,1.90
2023-01-01T04:15:11.870Z,2.35
2023-01-01T04:16:15.967Z,2.20
2023-01-01T04:17:17.629Z,2.30
2023-01-01T04:18:21.499Z,2.17
2023-01-01T04:19:23.407Z,2.00
2023-01-01T04:20:26.753Z,2.38
2023-01-01T04:21:28.671Z,2.25
2023-01-01T04:22:31.161Z,2.40
2023-01-01T04:23:32.666Z,3.03
2023-01-01T04:24:35.166Z,2.40
2023-01-01T04:25:36.754Z,2.30
2023-01-01T04:26:39.207Z,2.53
2023-01-01T04:27:41.265Z,2.10
2023-01-01T04:28:44.289Z,3.13
2023-01-01T04:29:45.799Z,2.30
2023-01-01T04:30:48.398Z,2.10
2023-01-01T04:31:50.488Z,1.80
2023-01-01T04:32:52.991Z,2.40
2023-01-01T04:33:55.867Z,1.80
2023-01-01T04:34:58.333Z,2.60
2023-01-01T04:36:03.529Z,4.25
2023-01-01T04:37:11.378Z,1.97
2023-01-01T04:38:14.906Z,3.90
2023-01-01T04:39:17.422Z,2.53
2023-01-01T04:40:19.894Z,2.50
2023-01-01T04:41:21.441Z,2.00
2023-01-01T04:42:23.947Z,2.00
2023-01-01T04:43:25.503Z,2.43
2023-01-01T04:44:27.984Z,2.38
2023-01-01T04:45:30.653Z,2.37
2023-01-01T04:46:33.287Z,2.23
2023-01-01T04:47:34.827Z,1.90
2023-01-01T04:48:37.332Z,2.45
2023-01-01T04:49:40.228Z,1.90
2023-01-01T04:50:42.701Z,1.70
2023-01-01T04:51:45.220Z,3.73
2023-01-01T04:52:51.101Z,2.38
2023-01-01T04:53:53.611Z,2.10
2023-01-01T04:54:56.084Z,2.00
2023-01-01T04:56:03.571Z,1.83
2023-01-01T04:57:06.532Z,2.13
2023-01-01T04:58:08.228Z,1.90
2023-01-01T04:59:10.916Z,1.90
2023-01-01T05:00:15.417Z,2.33
2023-01-01T05:01:21.786Z,2.20
2023-01-01T05:02:28.845Z,2.20
2023-01-01T05:03:30.650Z,2.77
2023-01-01T05:04:33.254Z,3.67
2023-01-01T05:05:44.418Z,2.00
2023-01-01T05:06:53.724Z,2.50
2023-01-01T05:07:55.218Z,2.08
2023-01-01T05:08:59.466Z,2.22
2023-01-01T05:10:00.995Z,2.75
2023-01-01T05:11:04.257Z,2.33
2023-01-01T05:12:06.459Z,1.90
2023-01-01T05:13:09.780Z,1.80
2023-01-01T05:14:11.417Z,2.00
2023-01-01T05:15:13.898Z,2.78
2023-01-01T05:16:17.261Z,2.10
2023-01-01T05:17:19.758Z,3.55
2023-01-01T05:18:21.568Z,2.13
2023-01-01T05:19:24.045Z,1.90
2023-01-01T05:20:25.579Z,2.28
2023-01-01T05:21:32.460Z,2.50
2023-01-01T05:22:34.360Z,1.92
2023-01-01T05:23:37.029Z,1.80
2023-01-01T05:24:38.570Z,2.00
2023-01-01T05:25:41.030Z,2.00
2023-01-01T05:26:44.758Z,1.50
2023-01-01T05:27:47.234Z,2.33
2023-01-01T05:28:49.804Z,2.00
2023-01-01T05:29:52.263Z,2.35
2023-01-01T05:30:54.112Z,2.28
2023-01-01T05:31:56.872Z,2.50
2023-01-01T05:32:58.384Z,2.47
2023-01-01T05:35:01.847Z,2.30
2023-01-01T05:36:06.413Z,2.13
2023-01-01T05:37:09.256Z,1.87
2023-01-01T05:38:11.869Z,2.45
2023-01-01T05:39:13.461Z,2.20
2023-01-01T05:40:16.088Z,2.03
2023-01-01T05:41:19.402Z,2.00
2023-01-01T05:42:22.244Z,2.70
2023-01-01T05:43:29.057Z,2.07
2023-01-01T05:44:33.173Z,2.40
2023-01-01T05:45:35.693Z,2.43
2023-01-01T05:46:48.179Z,2.30
2023-01-01T05:47:50.134Z,2.42
2023-01-01T05:49:00.043Z,2.03
2023-01-01T05:51:05.314Z,2.38
2023-01-01T05:52:06.804Z,1.97
2023-01-01T05:53:10.636Z,2.10
2023-01-01T05:55:13.819Z,2.60
2023-01-01T05:56:16.398Z,2.50
2023-01-01T05:57:18.859Z,2.03
2023-01-01T05:58:21.099Z,1.80
2023-01-01T05:59:23.558Z,2.55
2023-01-01T06:00:25.114Z,2.10
2023-01-01T06:01:30.224Z,2.00
2023-01-01T06:02:31.834Z,2.53
2023-01-01T06:03:34.433Z,2.03
2023-01-01T06:04:36.039Z,2.23
2023-01-01T06:05:38.552Z,2.40
2023-01-01T06:06:40.127Z,2.35
2023-01-01T06:07:48.116Z,4.07
2023-01-01T06:08:52.735Z,2.35
2023-01-01T06:09:55.219Z,2.50
2023-01-01T06:10:58.817Z,2.10
2023-01-01T06:12:01.356Z,2.25
2023-01-01T06:13:06.668Z,2.10
2023-01-01T06:14:12.074Z,3.13
2023-01-01T06:15:13.614Z,2.00
2023-01-01T06:16:16.184Z,2.10
2023-01-01T06:17:17.776Z,2.20
2023-01-01T06:18:20.251Z,1.90
2023-01-01T06:19:22.706Z,2.00
2023-01-01T06:20:24.508Z,1.90
2023-01-01T06:21:28.508Z,2.47
2023-01-01T06:22:30.001Z,2.57
2023-01-01T06:23:32.533Z,3.17
2023-01-01T06:24:41.938Z,2.40
2023-01-01T06:25:43.829Z,2.20
2023-01-01T06:26:59.041Z,2.03
2023-01-01T06:28:01.154Z,2.00
2023-01-01T06:29:04.672Z,1.95
2023-01-01T06:30:08.564Z,2.00
2023-01-01T06:31:13.954Z,2.22
2023-01-01T06:32:17.415Z,2.45
2023-01-01T06:33:19.885Z,2.25
2023-01-01T06:34:22.344Z,2.58
2023-01-01T06:35:23.956Z,2.27
2023-01-01T06:36:27.332Z,2.88
2023-01-01T06:37:29.905Z,2.95
2023-01-01T06:38:32.402Z,2.50
2023-01-01T06:39:34.967Z,2.00
2023-01-01T06:40:37.814Z,2.25
2023-01-01T06:41:40.249Z,2.60
2023-01-01T06:42:41.786Z,2.30
2023-01-01T06:43:45.124Z,2.05
2023-01-01T06:44:46.696Z,2.50
2023-01-01T06:45:49.207Z,2.22
2023-01-01T06:46:50.771Z,1.98
2023-01-01T06:47:53.228Z,1.90
2023-01-01T06:48:56.299Z,2.30
2023-01-01T06:49:58.798Z,2.00
2023-01-01T06:51:05.849Z,2.40
2023-01-01T06:52:08.322Z,2.00
2023-01-01T06:53:09.810Z,2.63
2023-01-01T06:54:12.545Z,2.28
2023-01-01T06:55:14.047Z,1.80
2023-01-01T06:56:18.622Z,1.92
2023-01-01T06:57:20.155Z,2.17
2023-01-01T06:58:22.940Z,2.17
2023-01-01T06:59:24.501Z,2.00
2023-01-01T07:00:26.986Z,2.30
2023-01-01T07:01:31.341Z,3.27
2023-01-01T07:02:33.277Z,2.13
2023-01-01T07:03:36.941Z,2.60
2023-01-01T07:04:38.841Z,2.30
2023-01-01T07:05:41.441Z,2.00
2023-01-01T07:06:43.667Z,2.43
2023-01-01T07:07:51.652Z,1.80
2023-01-01T07:09:05.136Z,2.08
2023-01-01T07:10:08.823Z,2.87
2023-01-01T07:11:12.093Z,2.03
2023-01-01T07:12:16.356Z,2.17
2023-01-01T07:13:18.214Z,1.80
2023-01-01T07:14:21.131Z,2.40
2023-01-01T07:15:23.705Z,2.25
2023-01-01T07:16:36.270Z,2.00
2023-01-01T07:17:39.485Z,2.28
2023-01-01T07:18:41.623Z,2.45
2023-01-01T07:19:44.065Z,2.17
2023-01-01T07:20:49.600Z,2.50
2023-01-01T07:21:54.625Z,2.93
2023-01-01T07:22:56.195Z,2.50
2023-01-01T07:24:00.080Z,2.40
2023-01-01T07:25:01.635Z,2.43
2023-01-01T07:26:04.178Z,2.63
2023-01-01T07:27:07.631Z,2.30
2023-01-01T07:28:11.198Z,2.60
2023-01-01T07:29:13.931Z,2.00
2023-01-01T07:30:15.600Z,3.30
2023-01-01T07:31:18.154Z,2.40
2023-01-01T07:32:20.689Z,2.00
2023-01-01T07:33:24.160Z,2.53
2023-01-01T07:34:26.614Z,2.00
2023-01-01T07:35:28.161Z,1.90
2023-01-01T07:36:30.648Z,2.80
2023-01-01T07:37:33.481Z,2.30
2023-01-01T07:38:34.984Z,2.30
2023-01-01T07:39:37.448Z,2.10
2023-01-01T07:40:39.372Z,2.35
2023-01-01T07:41:42.434Z,2.72
2023-01-01T07:42:44.029Z,2.20
2023-01-01T07:43:47.855Z,3.15
2023-01-01T07:44:50.325Z,3.15
2023-01-01T07:45:51.974Z,2.92
2023-01-01T07:47:02.880Z,2.77
2023-01-01T07:48:04.648Z,2.33
2023-01-01T07:49:07.142Z,2.80
2023-01-01T07:50:16.435Z,2.45
2023-01-01T07:51:18.911Z,2.58
2023-01-01T07:52:21.493Z,2.85
2023-01-01T07:53:23.057Z,2.67
2023-01-01T07:54:25.842Z,2.50
2023-01-01T07:55:27.579Z,2.40
2023-01-01T07:56:40.041Z,3.33
2023-01-01T07:57:42.775Z,2.00
2023-01-01T07:58:45.262Z,3.10
2023-01-01T07:59:48.606Z,2.78
2023-01-01T08:00:51.506Z,2.83
2023-01-01T08:01:53.835Z,2.38
2023-01-01T08:02:59.527Z,2.50
2023-01-01T08:04:01.118Z,3.45
2023-01-01T08:05:03.959Z,2.55
2023-01-01T08:06:08.835Z,2.25
2023-01-01T08:07:11.309Z,2.25
2023-01-01T08:08:12.860Z,2.13
2023-01-01T08:09:15.330Z,3.42
2023-01-01T08:10:19.967Z,2.22
2023-01-01T08:11:22.429Z,2.60
2023-01-01T08:12:25.079Z,2.58
2023-01-01T08:13:26.613Z,2.80
2023-01-01T08:14:29.043Z,2.20
2023-01-01T08:15:32.592Z,3.40
2023-01-01T08:16:35.147Z,3.25
2023-01-01T08:17:39.708Z,2.40
2023-01-01T08:18:47.802Z,2.92
2023-01-01T08:19:50.335Z,2.58
2023-01-01T08:20:53.117Z,2.33
2023-01-01T08:21:55.615Z,2.57
2023-01-01T08:23:01.421Z,2.20
2023-01-01T08:24:07.638Z,2.20
2023-01-01T08:25:09.519Z,2.00
2023-01-01T08:26:15.193Z,2.30
2023-01-01T08:27:18.372Z,2.60
2023-01-01T08:28:20.946Z,2.77
2023-01-01T08:29:22.497Z,2.65
2023-01-01T08:30:25.241Z,2.60
2023-01-01T08:31:28.278Z,2.35
2023-01-01T08:32:31.017Z,3.13
2023-01-01T08:33:34.421Z,2.67
2023-01-01T08:34:35.922Z,2.30
2023-01-01T08:35:41.526Z,3.25
2023-01-01T08:36:44.221Z,2.83
2023-01-01T08:37:56.728Z,3.05
2023-01-01T08:38:58.937Z,3.25
2023-01-01T08:40:01.474Z,2.60
2023-01-01T08:41:05.497Z,2.78
2023-01-01T08:42:12.232Z,2.90
2023-01-01T08:43:15.808Z,2.30
2023-01-01T08:44:18.906Z,2.40
2023-01-01T08:45:20.823Z,2.30
2023-01-01T08:46:23.439Z,2.33
2023-01-01T08:47:26.764Z,2.78
2023-01-01T08:48:31.066Z,2.30
2023-01-01T08:49:33.675Z,2.70
2023-01-01T08:50:35.196Z,2.97
2023-01-01T08:51:37.653Z,2.55
2023-01-01T08:52:39.197Z,2.40
2023-01-01T08:53:46.893Z,2.67
2023-01-01T08:54:52.975Z,2.75
2023-01-01T08:55:58.159Z,2.80
2023-01-01T08:57:00.617Z,2.33
2023-01-01T08:58:06.629Z,2.30
2023-01-01T08:59:09.109Z,2.50
2023-01-01T09:00:13.503Z,2.60
2023-01-01T09:01:18.098Z,2.65
2023-01-01T09:02:20.838Z,2.53
2023-01-01T09:03:23.947Z,2.78
2023-01-01T09:04:26.675Z,2.97
2023-01-01T09:05:28.268Z,3.33
2023-01-01T09:06:30.750Z,2.40
2023-01-01T09:07:33.287Z,2.53
2023-01-01T09:08:35.800Z,2.80
2023-01-01T09:09:37.348Z,2.47
2023-01-01T09:10:40.056Z,2.50
2023-01-01T09:11:51.843Z,2.35
2023-01-01T09:12:54.347Z,2.70
2023-01-01T09:13:56.053Z,2.72
2023-01-01T09:14:58.561Z,2.30
2023-01-01T09:16:00.467Z,3.03
2023-01-01T09:17:09.242Z,2.42
2023-01-01T09:18:18.453Z,3.42
2023-01-01T09:19:32.416Z,2.80
2023-01-01T09:20:36.407Z,2.37
2023-01-01T09:21:37.993Z,2.90
2023-01-01T09:22:40.516Z,3.35
2023-01-01T09:23:42.999Z,2.55
2023-01-01T09:24:45.467Z,3.20
2023-01-01T09:25:48.039Z,2.80
2023-01-01T09:26:50.721Z,2.78
2023-01-01T09:27:58.759Z,2.60
2023-01-01T09:29:01.704Z,2.73
2023-01-01T09:30:06.671Z,2.40
2023-01-01T09:31:08.852Z,2.33
2023-01-01T09:32:11.782Z,2.35
2023-01-01T09:33:14.713Z,2.85
2023-01-01T09:34:18.015Z,2.67
2023-01-01T09:35:22.051Z,2.10
2023-01-01T09:36:28.620Z,2.60
2023-01-01T09:37:31.519Z,2.60
2023-01-01T09:38:33.023Z,2.78
2023-01-01T09:39:35.499Z,2.90
2023-01-01T09:40:51.382Z,2.67
2023-01-01T09:42:05.816Z,2.85
2023-01-01T09:43:21.288Z,2.13
2023-01-01T09:44:39.755Z,2.35
2023-01-01T09:45:55.961Z,2.72
2023-01-01T09:47:00.850Z,2.60
2023-01-01T09:48:07.067Z,2.35
2023-01-01T09:49:17.346Z,2.65
2023-01-01T09:50:23.777Z,2.43
2023-01-01T09:51:29.340Z,2.63
2023-01-01T09:52:44.940Z,2.47
2023-01-01T09:53:54.622Z,2.20
2023-01-01T09:54:58.999Z,2.60
2023-01-01T09:56:03.383Z,3.03
2023-01-01T09:57:14.850Z,2.80
2023-01-01T09:58:25.924Z,2.20
2023-01-01T09:59:29.125Z,2.08
2023-01-01T10:00:35.649Z,2.50
2023-01-01T10:01:46.379Z,2.50
2023-01-01T10:03:20.219Z,2.30
2023-01-01T10:04:41.275Z,2.23
2023-01-01T10:05:55.888Z,2.40
2023-01-01T10:07:04.781Z,2.90
2023-01-01T10:08:11.244Z,2.13
2023-01-01T10:09:21.913Z,2.17
2023-01-01T10:10:35.489Z,2.63
2023-01-01T10:11:47.118Z,2.15
2023-01-01T10:13:00.577Z,3.20
2023-01-01T10:14:18.998Z,2.28
2023-01-01T10:15:25.189Z,2.60
2023-01-01T10:16:34.245Z,2.70
2023-01-01T10:17:42.258Z,2.85
2023-01-01T10:18:46.847Z,2.17
2023-01-01T10:19:52.668Z,2.60
2023-01-01T10:21:01.720Z,2.80
2023-01-01T10:22:08.606Z,2.35
2023-01-01T10:23:18.075Z,2.30
2023-01-01T10:24:35.936Z,2.40
2023-01-01T10:25:41.189Z,3.10
2023-01-01T10:26:42.737Z,2.58
2023-01-01T10:27:53.849Z,1.90
2023-01-01T10:29:03.193Z,2.20
2023-01-01T10:30:14.537Z,2.33
2023-01-01T10:31:18.060Z,2.35
2023-01-01T10:32:26.081Z,2.20
2023-01-01T10:33:28.665Z,2.65
2023-01-01T10:34:32.207Z,2.30
2023-01-01T10:35:36.762Z,2.40
2023-01-01T10:36:40.710Z,2.50
2023-01-01T10:37:43.845Z,2.80
2023-01-01T10:38:46.960Z,2.63
2023-01-01T10:39:49.010Z,2.58
2023-01-01T10:40:52.612Z,2.80
2023-01-01T10:41:55.123Z,2.33
2023-01-01T10:43:01.173Z,2.90
2023-01-01T10:44:03.882Z,2.40
2023-01-01T10:45:18.816Z,2.67
2023-01-01T10:46:31.554Z,2.17
2023-01-01T10:47:34.687Z,2.20
2023-01-01T10:49:06.804Z,3.20
2023-01-01T10:50:10.241Z,2.22
2023-01-01T10:51:24.764Z,3.03
2023-01-01T10:52:36.347Z,2.92
2023-01-01T10:53:41.890Z,2.53
2023-01-01T10:54:44.772Z,2.00
2023-01-01T10:55:49.915Z,2.78
2023-01-01T10:56:52.462Z,2.30
2023-01-01T10:57:54.961Z,2.50
2023-01-01T10:58:58.638Z,2.40
2023-01-01T11:00:23.196Z,2.90
2023-01-01T11:01:27.529Z,2.60
2023-01-01T11:02:29.266Z,2.67
2023-01-01T11:03:32.759Z,3.15
2023-01-01T11:04:35.660Z,2.80
2023-01-01T11:05:37.547Z,2.33
2023-01-01T11:06:42.359Z,2.27
2023-01-01T11:07:46.899Z,2.20
2023-01-01T11:08:50.600Z,2.80
2023-01-01T11:10:03.795Z,2.80
2023-01-01T11:11:07.206Z,3.20
2023-01-01T11:12:54.646Z,2.20
2023-01-01T11:13:42.441Z,2.43
2023-01-01T11:14:51.103Z,2.50
2023-01-01T11:15:52.959Z,2.37
2023-01-01T11:16:56.890Z,2.80
2023-01-01T11:18:05.322Z,2.60
2023-01-01T11:19:09.668Z,2.00
2023-01-01T11:20:19.386Z,2.53
2023-01-01T11:21:23.823Z,2.67
2023-01-01T11:22:41.812Z,2.50
2023-01-01T11:23:45.712Z,2.20
2023-01-01T11:25:01.295Z,2.50
2023-01-01T11:26:07.468Z,2.33
2023-01-01T11:27:18.993Z,3.28
2023-01-01T11:28:21.796Z,2.30
2023-01-01T11:29:28.265Z,2.50
2023-01-01T11:30:31.452Z,2.20
2023-01-01T11:31:40.614Z,3.50
2023-01-01T11:32:42.259Z,2.77
2023-01-01T11:33:47.599Z,3.40
2023-01-01T11:35:05.549Z,3.60
2023-01-01T11:36:26.439Z,3.00
2023-01-01T11:37:40.327Z,2.40
2023-01-01T11:38:42.837Z,3.40
2023-01-01T11:39:49.121Z,2.53
2023-01-01T11:40:54.787Z,2.28
2023-01-01T11:41:58.978Z,2.50
2023-01-01T11:43:04.623Z,3.38
2023-01-01T11:44:13.160Z,2.40
2023-01-01T11:45:37.164Z,3.10
2023-01-01T11:46:50.440Z,2.47
2023-01-01T11:47:59.665Z,4.10
2023-01-01T11:49:03.098Z,3.10
2023-01-01T11:50:20.454Z,3.15
2023-01-01T11:51:33.869Z,3.53
2023-01-01T11:52:40.489Z,3.23
2023-01-01T11:53:43.923Z,2.40
2023-01-01T11:54:47.926Z,2.63
2023-01-01T11:55:55.420Z,3.30
2023-01-01T11:57:03.442Z,2.47
2023-01-01T11:58:25.869Z,3.07
2023-01-01T11:59:33.226Z,2.50
2023-01-01T12:00:36.565Z,1.98
2023-01-01T12:01:46.464Z,2.75
2023-01-01T12:02:55.588Z,3.00
2023-01-01T12:04:03.299Z,2.47
2023-01-01T12:05:16.377Z,2.80
2023-01-01T12:06:24.563Z,2.90
2023-01-01T12:07:30.950Z,2.73
2023-01-01T12:08:38.977Z,2.77
2023-01-01T12:09:47.225Z,2.35
2023-01-01T12:10:55.228Z,2.38
2023-01-01T12:12:04.991Z,3.22
2023-01-01T12:13:15.183Z,2.58
2023-01-01T12:14:25.989Z,2.67
2023-01-01T12:15:36.686Z,2.50
2023-01-01T12:16:51.317Z,2.63
2023-01-01T12:18:02.677Z,2.38
2023-01-01T12:19:12.429Z,2.50
2023-01-01T12:20:21.913Z,3.27
2023-01-01T12:21:27.991Z,2.30
2023-01-01T12:22:30.540Z,2.87
2023-01-01T12:23:36.520Z,2.70
2023-01-01T12:24:39.364Z,3.23
2023-01-01T12:26:02.918Z,3.25
2023-01-01T12:27:16.341Z,3.20
2023-01-01T12:28:32.059Z,2.67
2023-01-01T12:29:51.948Z,2.30
2023-01-01T12:31:02.784Z,2.53
2023-01-01T12:32:10.093Z,2.45
2023-01-01T12:33:32.971Z,2.77
2023-01-01T12:34:42.318Z,2.38
2023-01-01T12:36:01.767Z,2.10
2023-01-01T12:37:11.726Z,2.80
2023-01-01T12:38:31.426Z,2.73
2023-01-01T12:40:14.998Z,3.60
2023-01-01T12:41:32.441Z,2.50
2023-01-01T12:42:47.497Z,2.40
2023-01-01T12:43:57.125Z,2.40
2023-01-01T12:45:18.413Z,2.20
2023-01-01T12:46:45.712Z,2.40
2023-01-01T12:48:00.763Z,2.65
2023-01-01T12:49:24.332Z,2.40
2023-01-01T12:50:36.635Z,2.75
2023-01-01T12:51:50.591Z,2.70
2023-01-01T12:53:04.843Z,3.13
2023-01-01T12:54:39.827Z,4.82
2023-01-01T12:56:04.940Z,2.40
2023-01-01T12:57:15.866Z,2.42
2023-01-01T12:58:25.563Z,2.10
2023-01-01T12:59:32.747Z,2.43
2023-01-01T13:00:54.730Z,2.60
2023-01-01T13:01:59.512Z,2.90
2023-01-01T13:03:19.801Z,3.08
2023-01-01T13:04:23.992Z,2.67
2023-01-01T13:05:32.662Z,2.80
2023-01-01T13:06:40.787Z,2.30
2023-01-01T13:07:47.853Z,2.03
2023-01-01T13:08:53.086Z,2.47
2023-01-01T13:09:56.680Z,2.35
2023-01-01T13:11:01.112Z,2.30
2023-01-01T13:12:07.724Z,3.10
2023-01-01T13:13:13.978Z,3.05
2023-01-01T13:14:16.943Z,3.03
2023-01-01T13:15:46.693Z,2.43
2023-01-01T13:16:52.702Z,2.10
2023-01-01T13:17:54.351Z,2.63
2023-01-01T13:19:02.321Z,2.60
2023-01-01T13:20:18.219Z,2.95
2023-01-01T13:21:25.699Z,2.78
2023-01-01T13:22:41.946Z,2.70
2023-01-01T13:23:51.846Z,2.35
2023-01-01T13:25:05.635Z,2.10
2023-01-01T13:26:40.288Z,2.40
2023-01-01T13:28:05.322Z,2.05
2023-01-01T13:29:32.204Z,2.20
2023-01-01T13:30:48.058Z,2.40
2023-01-01T13:32:05.013Z,2.43
2023-01-01T13:33:26.875Z,2.42
2023-01-01T13:34:35.047Z,2.58
2023-01-01T13:35:38.695Z,2.33
2023-01-01T13:36:40.666Z,3.10
2023-01-01T13:37:53.175Z,2.70
2023-01-01T13:38:56.989Z,2.70
2023-01-01T13:40:00.943Z,1.98
2023-01-01T13:41:03.434Z,2.23
2023-01-01T13:42:41.759Z,2.88
2023-01-01T13:43:44.279Z,3.05
2023-01-01T13:44:57.194Z,2.55
2023-01-01T13:46:13.623Z,2.40
2023-01-01T13:47:34.962Z,2.45
2023-01-01T13:49:16.376Z,2.90
2023-01-01T13:50:25.147Z,2.22
2023-01-01T13:52:06.438Z,3.25
2023-01-01T13:53:26.557Z,2.65
2023-01-01T13:54:51.053Z,2.45
2023-01-01T13:56:14.476Z,2.58
2023-01-01T13:57:37.466Z,2.20
2023-01-01T13:59:21.563Z,2.15
2023-01-01T14:00:29.210Z,4.75
2023-01-01T14:01:43.093Z,2.45
2023-01-01T14:02:49.218Z,2.20
2023-01-01T14:03:54.750Z,2.73
2023-01-01T14:05:01.424Z,2.55
2023-01-01T14:06:09.172Z,2.35
2023-01-01T14:07:49.676Z,1.90
2023-01-01T14:08:43.311Z,1.98
2023-01-01T14:09:44.910Z,2.50
2023-01-01T14:10:51.073Z,2.33
2023-01-01T14:11:53.580Z,2.70
2023-01-01T14:13:02.255Z,2.40
2023-01-01T14:14:03.769Z,3.10
2023-01-01T14:15:16.020Z,2.45
2023-01-01T14:16:20.037Z,2.50
2023-01-01T14:17:24.548Z,2.20
2023-01-01T14:18:34.507Z,2.55
2023-01-01T14:19:41.410Z,2.15
2023-01-01T14:20:46.016Z,2.50
2023-01-01T14:21:59.464Z,2.55
2023-01-01T14:23:12.844Z,2.70
2023-01-01T14:24:26.514Z,2.53
2023-01-01T14:25:29.720Z,2.60
2023-01-01T14:26:34.213Z,2.57
2023-01-01T14:27:36.196Z,2.00
2023-01-01T14:28:39.578Z,2.20
2023-01-01T14:29:43.156Z,2.47
2023-01-01T14:30:45.257Z,1.90
2023-01-01T14:31:49.454Z,2.50
2023-01-01T14:32:59.091Z,1.90
2023-01-01T14:34:02.493Z,2.20
2023-01-01T14:35:14.190Z,2.30
2023-01-01T14:36:21.633Z,2.35
2023-01-01T14:37:25.593Z,2.03
2023-01-01T14:38:29.633Z,2.50
2023-01-01T14:39:34.047Z,2.53
2023-01-01T14:40:35.661Z,3.33
2023-01-01T14:41:42.411Z,3.08
2023-01-01T14:42:46.009Z,2.20
2023-01-01T14:43:51.654Z,2.40
2023-01-01T14:44:54.278Z,2.72
2023-01-01T14:45:55.894Z,2.90
2023-01-01T14:47:00.026Z,3.47
2023-01-01T14:48:03.199Z,2.15
2023-01-01T14:49:12.470Z,3.70
2023-01-01T14:50:21.789Z,2.60
2023-01-01T14:51:26.208Z,2.15